sensor_id;sensor_type;location;lat;lon;timestamp;P1;durP1;ratioP1;P2;durP2;ratioP2
66970;SDS011;53901;51.466;-2.588;2023-04-24T00:00:53;13.32;;;7.05;;
66970;SDS011;53901;51.466;-2.588;2023-04-24T00:03:21;8.63;;;6.70;;
66970;SDS011;53901;51.466;-2.588;2023-04-24T00:05:50;11.23;;;6.50;;
66970;SDS011;53901;51.466;-2.588;2023-04-24T00:08:16;14.18;;;7.20;;
66970;SDS011;53901;51.466;-2.588;2023-04-24T00:10:42;11.73;;;6.35;;
66970;SDS011;53901;51.466;-2.588;2023-04-24T00:13:07;9.00;;;5.82;;
66970;SDS011;53901;51.466;-2.588;2023-04-24T00:15:32;11.25;;;6.38;;
66970;SDS011;53901;51.466;-2.588;2023-04-24T00:17:58;8.98;;;6.25;;
66970;SDS011;53901;51.466;-2.588;2023-04-24T00:20:23;11.50;;;6.15;;
66970;SDS011;53901;51.466;-2.588;2023-04-24T00:22:48;13.23;;;6.25;;
66970;SDS011;53901;51.466;-2.588;2023-04-24T00:25:14;9.73;;;6.15;;
66970;SDS011;53901;51.466;-2.588;2023-04-24T00:27:39;9.80;;;5.82;;
66970;SDS011;53901;51.466;-2.588;2023-04-24T00:30:05;9.65;;;5.80;;
66970;SDS011;53901;51.466;-2.588;2023-04-24T00:32:31;12.25;;;6.18;;
66970;SDS011;53901;51.466;-2.588;2023-04-24T00:34:56;10.65;;;5.80;;
66970;SDS011;53901;51.466;-2.588;2023-04-24T00:37:22;9.32;;;5.68;;
66970;SDS011;53901;51.466;-2.588;2023-04-24T00:39:49;9.23;;;5.70;;
66970;SDS011;53901;51.466;-2.588;2023-04-24T00:42:14;10.05;;;5.70;;
66970;SDS011;53901;51.466;-2.588;2023-04-24T00:44:40;9.90;;;5.95;;
66970;SDS011;53901;51.466;-2.588;2023-04-24T00:47:05;8.90;;;5.80;;
66970;SDS011;53901;51.466;-2.588;2023-04-24T00:49:31;9.90;;;5.93;;
66970;SDS011;53901;51.466;-2.588;2023-04-24T00:51:56;11.35;;;5.43;;
66970;SDS011;53901;51.466;-2.588;2023-04-24T00:54:24;8.38;;;5.68;;
66970;SDS011;53901;51.466;-2.588;2023-04-24T00:56:50;9.75;;;6.15;;
66970;SDS011;53901;51.466;-2.588;2023-04-24T00:59:16;9.25;;;5.38;;
66970;SDS011;53901;51.466;-2.588;2023-04-24T01:01:42;9.95;;;5.70;;
66970;SDS011;53901;51.466;-2.588;2023-04-24T01:04:08;8.32;;;4.90;;
66970;SDS011;53901;51.466;-2.588;2023-04-24T01:06:35;8.65;;;5.50;;
66970;SDS011;53901;51.466;-2.588;2023-04-24T01:09:05;8.27;;;5.35;;
66970;SDS011;53901;51.466;-2.588;2023-04-24T01:11:33;8.20;;;5.20;;
66970;SDS011;53901;51.466;-2.588;2023-04-24T01:13:58;11.10;;;5.68;;
66970;SDS011;53901;51.466;-2.588;2023-04-24T01:16:24;9.57;;;5.38;;
66970;SDS011;53901;51.466;-2.588;2023-04-24T01:18:50;10.90;;;5.90;;
66970;SDS011;53901;51.466;-2.588;2023-04-24T01:21:16;8.52;;;5.18;;
66970;SDS011;53901;51.466;-2.588;2023-04-24T01:23:45;9.35;;;5.15;;
66970;SDS011;53901;51.466;-2.588;2023-04-24T01:26:11;10.65;;;5.72;;
66970;SDS011;53901;51.466;-2.588;2023-04-24T01:28:37;7.72;;;5.20;;
66970;SDS011;53901;51.466;-2.588;2023-04-24T01:31:02;8.80;;;4.65;;
66970;SDS011;53901;51.466;-2.588;2023-04-24T01:33:28;7.18;;;4.75;;
66970;SDS011;53901;51.466;-2.588;2023-04-24T01:35:54;8.68;;;4.85;;
66970;SDS011;53901;51.466;-2.588;2023-04-24T01:38:19;8.98;;;5.28;;
66970;SDS011;53901;51.466;-2.588;2023-04-24T01:40:45;8.50;;;5.30;;
66970;SDS011;53901;51.466;-2.588;2023-04-24T01:43:11;6.70;;;4.70;;
66970;SDS011;53901;51.466;-2.588;2023-04-24T01:45:37;8.88;;;5.18;;
66970;SDS011;53901;51.466;-2.588;2023-04-24T01:48:02;8.68;;;4.90;;
66970;SDS011;53901;51.466;-2.588;2023-04-24T01:50:28;8.15;;;5.25;;
66970;SDS011;53901;51.466;-2.588;2023-04-24T01:52:53;11.55;;;5.20;;
66970;SDS011;53901;51.466;-2.588;2023-04-24T01:55:18;8.18;;;4.95;;
66970;SDS011;53901;51.466;-2.588;2023-04-24T01:57:44;8.77;;;5.22;;
66970;SDS011;53901;51.466;-2.588;2023-04-24T02:00:10;11.80;;;5.32;;
66970;SDS011;53901;51.466;-2.588;2023-04-24T02:02:36;8.80;;;5.50;;
66970;SDS011;53901;51.466;-2.588;2023-04-24T02:05:02;7.05;;;5.38;;
66970;SDS011;53901;51.466;-2.588;2023-04-24T02:07:28;8.50;;;5.38;;
66970;SDS011;53901;51.466;-2.588;2023-04-24T02:09:53;11.05;;;5.55;;
66970;SDS011;53901;51.466;-2.588;2023-04-24T02:12:20;12.52;;;5.30;;
66970;SDS011;53901;51.466;-2.588;2023-04-24T02:14:45;12.63;;;6.22;;
66970;SDS011;53901;51.466;-2.588;2023-04-24T02:17:11;11.23;;;6.47;;
66970;SDS011;53901;51.466;-2.588;2023-04-24T02:19:37;10.70;;;6.22;;
66970;SDS011;53901;51.466;-2.588;2023-04-24T02:22:02;14.10;;;6.75;;
66970;SDS011;53901;51.466;-2.588;2023-04-24T02:24:28;9.23;;;6.10;;
66970;SDS011;53901;51.466;-2.588;2023-04-24T02:26:53;10.85;;;6.15;;
66970;SDS011;53901;51.466;-2.588;2023-04-24T02:29:18;11.13;;;6.28;;
66970;SDS011;53901;51.466;-2.588;2023-04-24T02:31:44;10.88;;;6.00;;
66970;SDS011;53901;51.466;-2.588;2023-04-24T02:34:09;11.20;;;6.60;;
66970;SDS011;53901;51.466;-2.588;2023-04-24T02:36:35;11.18;;;6.30;;
66970;SDS011;53901;51.466;-2.588;2023-04-24T02:39:00;10.90;;;5.78;;
66970;SDS011;53901;51.466;-2.588;2023-04-24T02:41:26;12.68;;;5.95;;
66970;SDS011;53901;51.466;-2.588;2023-04-24T02:43:56;12.48;;;6.38;;
66970;SDS011;53901;51.466;-2.588;2023-04-24T02:46:21;14.35;;;7.15;;
66970;SDS011;53901;51.466;-2.588;2023-04-24T02:48:46;15.02;;;6.57;;
66970;SDS011;53901;51.466;-2.588;2023-04-24T02:51:12;12.18;;;6.47;;
66970;SDS011;53901;51.466;-2.588;2023-04-24T02:53:37;12.85;;;6.20;;
66970;SDS011;53901;51.466;-2.588;2023-04-24T02:56:02;11.18;;;6.63;;
66970;SDS011;53901;51.466;-2.588;2023-04-24T02:58:28;10.40;;;6.75;;
66970;SDS011;53901;51.466;-2.588;2023-04-24T03:00:54;11.50;;;6.07;;
66970;SDS011;53901;51.466;-2.588;2023-04-24T03:03:22;10.65;;;6.07;;
66970;SDS011;53901;51.466;-2.588;2023-04-24T03:05:48;12.32;;;7.10;;
66970;SDS011;53901;51.466;-2.588;2023-04-24T03:08:14;11.27;;;6.75;;
66970;SDS011;53901;51.466;-2.588;2023-04-24T03:10:39;12.23;;;6.57;;
66970;SDS011;53901;51.466;-2.588;2023-04-24T03:13:05;13.43;;;7.45;;
66970;SDS011;53901;51.466;-2.588;2023-04-24T03:15:30;13.80;;;6.65;;
66970;SDS011;53901;51.466;-2.588;2023-04-24T03:17:56;14.50;;;7.18;;
66970;SDS011;53901;51.466;-2.588;2023-04-24T03:20:21;15.88;;;9.70;;
66970;SDS011;53901;51.466;-2.588;2023-04-24T03:22:47;23.73;;;12.85;;
66970;SDS011;53901;51.466;-2.588;2023-04-24T03:25:12;14.52;;;8.85;;
66970;SDS011;53901;51.466;-2.588;2023-04-24T03:27:37;11.05;;;6.75;;
66970;SDS011;53901;51.466;-2.588;2023-04-24T03:30:04;13.40;;;6.82;;
66970;SDS011;53901;51.466;-2.588;2023-04-24T03:32:31;10.25;;;6.75;;
66970;SDS011;53901;51.466;-2.588;2023-04-24T03:34:57;11.13;;;6.85;;
66970;SDS011;53901;51.466;-2.588;2023-04-24T03:37:22;11.55;;;6.78;;
66970;SDS011;53901;51.466;-2.588;2023-04-24T03:39:47;12.40;;;6.80;;
66970;SDS011;53901;51.466;-2.588;2023-04-24T03:42:13;13.20;;;7.00;;
66970;SDS011;53901;51.466;-2.588;2023-04-24T03:44:38;12.63;;;7.13;;
66970;SDS011;53901;51.466;-2.588;2023-04-24T03:47:03;13.85;;;6.80;;
66970;SDS011;53901;51.466;-2.588;2023-04-24T03:49:29;15.27;;;7.68;;
66970;SDS011;53901;51.466;-2.588;2023-04-24T03:51:54;13.95;;;7.30;;
66970;SDS011;53901;51.466;-2.588;2023-04-24T03:54:20;13.20;;;6.85;;
66970;SDS011;53901;51.466;-2.588;2023-04-24T03:56:45;10.55;;;6.93;;
66970;SDS011;53901;51.466;-2.588;2023-04-24T03:59:11;13.00;;;7.35;;
66970;SDS011;53901;51.466;-2.588;2023-04-24T04:01:36;13.55;;;7.30;;
66970;SDS011;53901;51.466;-2.588;2023-04-24T04:04:05;12.55;;;6.78;;
66970;SDS011;53901;51.466;-2.588;2023-04-24T04:06:31;10.70;;;6.85;;
66970;SDS011;53901;51.466;-2.588;2023-04-24T04:08:57;11.32;;;6.82;;
66970;SDS011;53901;51.466;-2.588;2023-04-24T04:11:23;14.18;;;6.70;;
66970;SDS011;53901;51.466;-2.588;2023-04-24T04:13:48;10.77;;;6.40;;
66970;SDS011;53901;51.466;-2.588;2023-04-24T04:16:14;11.38;;;6.70;;
66970;SDS011;53901;51.466;-2.588;2023-04-24T04:18:41;12.35;;;7.45;;
66970;SDS011;53901;51.466;-2.588;2023-04-24T04:21:07;15.30;;;7.18;;
66970;SDS011;53901;51.466;-2.588;2023-04-24T04:23:32;10.98;;;6.80;;
66970;SDS011;53901;51.466;-2.588;2023-04-24T04:26:01;12.13;;;7.07;;
66970;SDS011;53901;51.466;-2.588;2023-04-24T04:28:27;13.63;;;6.97;;
66970;SDS011;53901;51.466;-2.588;2023-04-24T04:30:52;11.32;;;6.43;;
66970;SDS011;53901;51.466;-2.588;2023-04-24T04:33:22;11.82;;;6.78;;
66970;SDS011;53901;51.466;-2.588;2023-04-24T04:35:48;13.48;;;6.63;;
66970;SDS011;53901;51.466;-2.588;2023-04-24T04:38:14;15.75;;;7.15;;
66970;SDS011;53901;51.466;-2.588;2023-04-24T04:40:41;13.20;;;7.13;;
66970;SDS011;53901;51.466;-2.588;2023-04-24T04:43:07;11.20;;;7.60;;
66970;SDS011;53901;51.466;-2.588;2023-04-24T04:45:32;15.75;;;7.43;;
66970;SDS011;53901;51.466;-2.588;2023-04-24T04:47:59;15.27;;;8.18;;
66970;SDS011;53901;51.466;-2.588;2023-04-24T04:50:25;13.77;;;8.50;;
66970;SDS011;53901;51.466;-2.588;2023-04-24T04:52:51;16.88;;;8.55;;
66970;SDS011;53901;51.466;-2.588;2023-04-24T04:55:17;15.52;;;9.52;;
66970;SDS011;53901;51.466;-2.588;2023-04-24T04:57:43;15.77;;;9.07;;
66970;SDS011;53901;51.466;-2.588;2023-04-24T05:00:08;14.15;;;8.77;;
66970;SDS011;53901;51.466;-2.588;2023-04-24T05:02:35;17.05;;;9.38;;
66970;SDS011;53901;51.466;-2.588;2023-04-24T05:05:01;13.70;;;8.95;;
66970;SDS011;53901;51.466;-2.588;2023-04-24T05:07:26;15.52;;;9.32;;
66970;SDS011;53901;51.466;-2.588;2023-04-24T05:09:51;19.02;;;9.15;;
66970;SDS011;53901;51.466;-2.588;2023-04-24T05:12:17;17.17;;;9.65;;
66970;SDS011;53901;51.466;-2.588;2023-04-24T05:14:42;21.25;;;9.98;;
66970;SDS011;53901;51.466;-2.588;2023-04-24T05:17:08;14.75;;;9.63;;
66970;SDS011;53901;51.466;-2.588;2023-04-24T05:19:33;16.88;;;9.95;;
66970;SDS011;53901;51.466;-2.588;2023-04-24T05:22:00;16.58;;;9.85;;
66970;SDS011;53901;51.466;-2.588;2023-04-24T05:24:28;16.85;;;9.85;;
66970;SDS011;53901;51.466;-2.588;2023-04-24T05:26:53;16.52;;;10.00;;
66970;SDS011;53901;51.466;-2.588;2023-04-24T05:29:19;17.42;;;10.32;;
66970;SDS011;53901;51.466;-2.588;2023-04-24T05:31:44;20.10;;;10.85;;
66970;SDS011;53901;51.466;-2.588;2023-04-24T05:34:10;17.60;;;10.20;;
66970;SDS011;53901;51.466;-2.588;2023-04-24T05:36:35;17.52;;;10.63;;
66970;SDS011;53901;51.466;-2.588;2023-04-24T05:39:00;15.48;;;11.00;;
66970;SDS011;53901;51.466;-2.588;2023-04-24T05:41:26;21.83;;;11.65;;
66970;SDS011;53901;51.466;-2.588;2023-04-24T05:43:51;22.17;;;11.98;;
66970;SDS011;53901;51.466;-2.588;2023-04-24T05:46:16;23.98;;;11.18;;
66970;SDS011;53901;51.466;-2.588;2023-04-24T05:48:42;19.17;;;10.88;;
66970;SDS011;53901;51.466;-2.588;2023-04-24T05:51:08;21.60;;;11.07;;
66970;SDS011;53901;51.466;-2.588;2023-04-24T05:53:34;19.40;;;10.77;;
66970;SDS011;53901;51.466;-2.588;2023-04-24T05:55:59;21.60;;;10.95;;
66970;SDS011;53901;51.466;-2.588;2023-04-24T05:58:25;17.27;;;10.30;;
66970;SDS011;53901;51.466;-2.588;2023-04-24T06:00:50;23.52;;;12.38;;
66970;SDS011;53901;51.466;-2.588;2023-04-24T06:03:16;18.92;;;10.63;;
66970;SDS011;53901;51.466;-2.588;2023-04-24T06:05:41;17.05;;;10.38;;
66970;SDS011;53901;51.466;-2.588;2023-04-24T06:08:06;19.75;;;10.77;;
66970;SDS011;53901;51.466;-2.588;2023-04-24T06:10:32;17.08;;;9.40;;
66970;SDS011;53901;51.466;-2.588;2023-04-24T06:12:57;15.07;;;9.68;;
66970;SDS011;53901;51.466;-2.588;2023-04-24T06:15:26;25.20;;;10.52;;
66970;SDS011;53901;51.466;-2.588;2023-04-24T06:17:55;19.77;;;9.93;;
66970;SDS011;53901;51.466;-2.588;2023-04-24T06:20:20;15.30;;;9.63;;
66970;SDS011;53901;51.466;-2.588;2023-04-24T06:22:46;17.23;;;9.10;;
66970;SDS011;53901;51.466;-2.588;2023-04-24T06:25:11;18.13;;;9.23;;
66970;SDS011;53901;51.466;-2.588;2023-04-24T06:27:37;17.00;;;10.27;;
66970;SDS011;53901;51.466;-2.588;2023-04-24T06:30:02;19.42;;;9.23;;
66970;SDS011;53901;51.466;-2.588;2023-04-24T06:32:28;13.98;;;9.07;;
66970;SDS011;53901;51.466;-2.588;2023-04-24T06:34:53;16.52;;;9.32;;
66970;SDS011;53901;51.466;-2.588;2023-04-24T06:37:19;17.80;;;9.18;;
66970;SDS011;53901;51.466;-2.588;2023-04-24T06:39:45;18.23;;;9.52;;
66970;SDS011;53901;51.466;-2.588;2023-04-24T06:42:11;14.98;;;8.88;;
66970;SDS011;53901;51.466;-2.588;2023-04-24T06:44:36;15.98;;;9.13;;
66970;SDS011;53901;51.466;-2.588;2023-04-24T06:47:06;14.57;;;8.80;;
66970;SDS011;53901;51.466;-2.588;2023-04-24T06:49:33;17.48;;;9.07;;
66970;SDS011;53901;51.466;-2.588;2023-04-24T06:51:59;14.52;;;8.63;;
66970;SDS011;53901;51.466;-2.588;2023-04-24T06:54:25;13.70;;;8.45;;
66970;SDS011;53901;51.466;-2.588;2023-04-24T06:56:50;16.58;;;9.93;;
66970;SDS011;53901;51.466;-2.588;2023-04-24T06:59:17;19.88;;;9.48;;
66970;SDS011;53901;51.466;-2.588;2023-04-24T07:01:42;15.10;;;9.50;;
66970;SDS011;53901;51.466;-2.588;2023-04-24T07:04:07;17.38;;;9.80;;
66970;SDS011;53901;51.466;-2.588;2023-04-24T07:06:33;17.42;;;9.55;;
66970;SDS011;53901;51.466;-2.588;2023-04-24T07:08:58;20.33;;;9.63;;
66970;SDS011;53901;51.466;-2.588;2023-04-24T07:11:25;15.40;;;10.57;;
66970;SDS011;53901;51.466;-2.588;2023-04-24T07:13:54;18.30;;;9.93;;
66970;SDS011;53901;51.466;-2.588;2023-04-24T07:16:19;14.90;;;9.55;;
66970;SDS011;53901;51.466;-2.588;2023-04-24T07:18:45;20.25;;;10.15;;
66970;SDS011;53901;51.466;-2.588;2023-04-24T07:21:10;16.20;;;9.57;;
66970;SDS011;53901;51.466;-2.588;2023-04-24T07:23:36;18.13;;;9.38;;
66970;SDS011;53901;51.466;-2.588;2023-04-24T07:26:02;14.68;;;9.20;;
66970;SDS011;53901;51.466;-2.588;2023-04-24T07:28:27;15.85;;;10.07;;
66970;SDS011;53901;51.466;-2.588;2023-04-24T07:30:55;18.38;;;9.98;;
66970;SDS011;53901;51.466;-2.588;2023-04-24T07:33:21;15.15;;;9.57;;
66970;SDS011;53901;51.466;-2.588;2023-04-24T07:35:47;16.17;;;9.02;;
66970;SDS011;53901;51.466;-2.588;2023-04-24T07:38:12;14.43;;;9.13;;
66970;SDS011;53901;51.466;-2.588;2023-04-24T07:40:38;20.67;;;9.98;;
66970;SDS011;53901;51.466;-2.588;2023-04-24T07:43:03;19.75;;;9.88;;
66970;SDS011;53901;51.466;-2.588;2023-04-24T07:45:29;16.85;;;10.20;;
66970;SDS011;53901;51.466;-2.588;2023-04-24T07:47:54;16.90;;;8.75;;
66970;SDS011;53901;51.466;-2.588;2023-04-24T07:50:20;15.45;;;9.40;;
66970;SDS011;53901;51.466;-2.588;2023-04-24T07:52:45;14.60;;;8.70;;
66970;SDS011;53901;51.466;-2.588;2023-04-24T07:55:11;14.82;;;7.80;;
66970;SDS011;53901;51.466;-2.588;2023-04-24T07:57:36;13.40;;;7.95;;
66970;SDS011;53901;51.466;-2.588;2023-04-24T08:00:02;9.95;;;6.38;;
66970;SDS011;53901;51.466;-2.588;2023-04-24T08:02:29;7.65;;;5.20;;
66970;SDS011;53901;51.466;-2.588;2023-04-24T08:04:54;10.63;;;6.20;;
66970;SDS011;53901;51.466;-2.588;2023-04-24T08:07:20;10.63;;;6.43;;
66970;SDS011;53901;51.466;-2.588;2023-04-24T08:09:46;11.15;;;5.70;;
66970;SDS011;53901;51.466;-2.588;2023-04-24T08:12:11;10.85;;;5.95;;
66970;SDS011;53901;51.466;-2.588;2023-04-24T08:14:37;10.77;;;6.55;;
66970;SDS011;53901;51.466;-2.588;2023-04-24T08:17:02;10.30;;;6.10;;
66970;SDS011;53901;51.466;-2.588;2023-04-24T08:19:28;10.52;;;5.90;;
66970;SDS011;53901;51.466;-2.588;2023-04-24T08:21:53;10.38;;;5.90;;
66970;SDS011;53901;51.466;-2.588;2023-04-24T08:24:19;10.25;;;7.60;;
66970;SDS011;53901;51.466;-2.588;2023-04-24T08:26:47;13.75;;;7.25;;
66970;SDS011;53901;51.466;-2.588;2023-04-24T08:29:15;14.63;;;6.97;;
66970;SDS011;53901;51.466;-2.588;2023-04-24T08:31:40;14.13;;;8.13;;
66970;SDS011;53901;51.466;-2.588;2023-04-24T08:34:06;15.43;;;8.50;;
66970;SDS011;53901;51.466;-2.588;2023-04-24T08:36:31;16.85;;;8.23;;
66970;SDS011;53901;51.466;-2.588;2023-04-24T08:38:57;12.82;;;8.25;;
66970;SDS011;53901;51.466;-2.588;2023-04-24T08:41:22;13.32;;;8.80;;
66970;SDS011;53901;51.466;-2.588;2023-04-24T08:43:51;15.68;;;9.50;;
66970;SDS011;53901;51.466;-2.588;2023-04-24T08:46:16;14.50;;;7.55;;
66970;SDS011;53901;51.466;-2.588;2023-04-24T08:48:43;16.75;;;8.20;;
66970;SDS011;53901;51.466;-2.588;2023-04-24T08:51:09;16.10;;;8.63;;
66970;SDS011;53901;51.466;-2.588;2023-04-24T08:53:36;14.68;;;7.97;;
66970;SDS011;53901;51.466;-2.588;2023-04-24T08:56:01;13.45;;;8.45;;
66970;SDS011;53901;51.466;-2.588;2023-04-24T08:58:27;17.85;;;8.38;;
66970;SDS011;53901;51.466;-2.588;2023-04-24T09:00:56;14.80;;;8.00;;
66970;SDS011;53901;51.466;-2.588;2023-04-24T09:03:23;14.52;;;8.25;;
66970;SDS011;53901;51.466;-2.588;2023-04-24T09:05:49;16.10;;;8.82;;
66970;SDS011;53901;51.466;-2.588;2023-04-24T09:08:16;15.73;;;8.32;;
66970;SDS011;53901;51.466;-2.588;2023-04-24T09:10:43;13.75;;;8.65;;
66970;SDS011;53901;51.466;-2.588;2023-04-24T09:13:08;15.65;;;8.63;;
66970;SDS011;53901;51.466;-2.588;2023-04-24T09:15:35;18.48;;;8.38;;
66970;SDS011;53901;51.466;-2.588;2023-04-24T09:18:01;19.40;;;8.68;;
66970;SDS011;53901;51.466;-2.588;2023-04-24T09:20:27;14.43;;;8.60;;
66970;SDS011;53901;51.466;-2.588;2023-04-24T09:22:58;13.13;;;8.90;;
66970;SDS011;53901;51.466;-2.588;2023-04-24T09:25:31;14.15;;;8.50;;
66970;SDS011;53901;51.466;-2.588;2023-04-24T09:28:00;16.13;;;8.90;;
66970;SDS011;53901;51.466;-2.588;2023-04-24T09:30:27;16.50;;;8.90;;
66970;SDS011;53901;51.466;-2.588;2023-04-24T09:35:41;19.17;;;10.15;;
66970;SDS011;53901;51.466;-2.588;2023-04-24T09:38:08;18.60;;;10.40;;
66970;SDS011;53901;51.466;-2.588;2023-04-24T09:40:34;20.23;;;11.25;;
66970;SDS011;53901;51.466;-2.588;2023-04-24T09:43:00;22.73;;;11.20;;
66970;SDS011;53901;51.466;-2.588;2023-04-24T09:45:28;19.42;;;12.07;;
66970;SDS011;53901;51.466;-2.588;2023-04-24T09:48:00;24.50;;;13.68;;
66970;SDS011;53901;51.466;-2.588;2023-04-24T09:50:26;19.17;;;12.88;;
66970;SDS011;53901;51.466;-2.588;2023-04-24T09:52:58;23.95;;;13.85;;
66970;SDS011;53901;51.466;-2.588;2023-04-24T09:55:25;22.27;;;13.02;;
66970;SDS011;53901;51.466;-2.588;2023-04-24T09:57:55;21.95;;;12.32;;
66970;SDS011;53901;51.466;-2.588;2023-04-24T10:00:26;23.35;;;15.40;;
66970;SDS011;53901;51.466;-2.588;2023-04-24T10:02:56;23.63;;;13.25;;
66970;SDS011;53901;51.466;-2.588;2023-04-24T10:05:25;23.95;;;13.00;;
66970;SDS011;53901;51.466;-2.588;2023-04-24T10:08:02;23.92;;;13.27;;
66970;SDS011;53901;51.466;-2.588;2023-04-24T10:10:30;23.13;;;14.25;;
66970;SDS011;53901;51.466;-2.588;2023-04-24T10:12:56;22.48;;;13.32;;
66970;SDS011;53901;51.466;-2.588;2023-04-24T10:15:21;24.92;;;14.88;;
66970;SDS011;53901;51.466;-2.588;2023-04-24T10:17:48;23.35;;;14.05;;
66970;SDS011;53901;51.466;-2.588;2023-04-24T10:20:17;26.08;;;13.95;;
66970;SDS011;53901;51.466;-2.588;2023-04-24T10:22:45;21.20;;;13.93;;
66970;SDS011;53901;51.466;-2.588;2023-04-24T10:25:14;24.80;;;14.25;;
66970;SDS011;53901;51.466;-2.588;2023-04-24T10:27:41;22.38;;;13.35;;
66970;SDS011;53901;51.466;-2.588;2023-04-24T10:30:07;23.35;;;12.98;;
66970;SDS011;53901;51.466;-2.588;2023-04-24T10:32:33;24.85;;;14.70;;
66970;SDS011;53901;51.466;-2.588;2023-04-24T10:34:58;24.25;;;14.07;;
66970;SDS011;53901;51.466;-2.588;2023-04-24T10:37:24;20.40;;;13.27;;
66970;SDS011;53901;51.466;-2.588;2023-04-24T10:39:50;24.45;;;14.80;;
66970;SDS011;53901;51.466;-2.588;2023-04-24T10:42:19;20.92;;;12.93;;
66970;SDS011;53901;51.466;-2.588;2023-04-24T10:44:47;20.75;;;12.60;;
66970;SDS011;53901;51.466;-2.588;2023-04-24T10:47:13;21.77;;;13.30;;
66970;SDS011;53901;51.466;-2.588;2023-04-24T10:49:39;18.25;;;11.57;;
66970;SDS011;53901;51.466;-2.588;2023-04-24T10:52:05;18.75;;;11.40;;
66970;SDS011;53901;51.466;-2.588;2023-04-24T10:54:34;18.27;;;11.15;;
66970;SDS011;53901;51.466;-2.588;2023-04-24T10:59:44;18.08;;;11.00;;
66970;SDS011;53901;51.466;-2.588;2023-04-24T11:02:10;17.70;;;10.07;;
66970;SDS011;53901;51.466;-2.588;2023-04-24T11:04:36;13.57;;;8.82;;
66970;SDS011;53901;51.466;-2.588;2023-04-24T11:07:04;14.98;;;8.25;;
66970;SDS011;53901;51.466;-2.588;2023-04-24T11:09:30;14.02;;;8.05;;
66970;SDS011;53901;51.466;-2.588;2023-04-24T11:12:04;15.20;;;7.97;;
66970;SDS011;53901;51.466;-2.588;2023-04-24T11:17:36;15.63;;;8.52;;
66970;SDS011;53901;51.466;-2.588;2023-04-24T11:20:03;13.88;;;7.63;;
66970;SDS011;53901;51.466;-2.588;2023-04-24T11:22:34;11.88;;;6.88;;
66970;SDS011;53901;51.466;-2.588;2023-04-24T11:25:01;11.45;;;7.15;;
66970;SDS011;53901;51.466;-2.588;2023-04-24T11:27:29;9.35;;;7.25;;
66970;SDS011;53901;51.466;-2.588;2023-04-24T11:32:25;9.55;;;6.70;;
66970;SDS011;53901;51.466;-2.588;2023-04-24T11:37:27;10.35;;;6.60;;
66970;SDS011;53901;51.466;-2.588;2023-04-24T11:39:55;10.85;;;6.97;;
66970;SDS011;53901;51.466;-2.588;2023-04-24T11:42:22;8.60;;;5.90;;
66970;SDS011;53901;51.466;-2.588;2023-04-24T11:44:49;10.52;;;5.68;;
66970;SDS011;53901;51.466;-2.588;2023-04-24T11:47:15;9.63;;;6.18;;
66970;SDS011;53901;51.466;-2.588;2023-04-24T11:49:40;10.10;;;6.68;;
66970;SDS011;53901;51.466;-2.588;2023-04-24T11:52:06;11.13;;;6.57;;
66970;SDS011;53901;51.466;-2.588;2023-04-24T11:54:37;8.25;;;6.40;;
66970;SDS011;53901;51.466;-2.588;2023-04-24T11:57:06;8.63;;;6.10;;
66970;SDS011;53901;51.466;-2.588;2023-04-24T11:59:40;9.70;;;6.28;;
66970;SDS011;53901;51.466;-2.588;2023-04-24T12:02:06;8.40;;;5.30;;
66970;SDS011;53901;51.466;-2.588;2023-04-24T12:04:38;10.73;;;5.45;;
66970;SDS011;53901;51.466;-2.588;2023-04-24T12:07:05;7.55;;;4.75;;
66970;SDS011;53901;51.466;-2.588;2023-04-24T12:09:55;7.35;;;3.83;;
66970;SDS011;53901;51.466;-2.588;2023-04-24T12:12:23;6.15;;;4.13;;
66970;SDS011;53901;51.466;-2.588;2023-04-24T12:14:53;5.97;;;4.10;;
66970;SDS011;53901;51.466;-2.588;2023-04-24T12:17:29;5.45;;;3.97;;
66970;SDS011;53901;51.466;-2.588;2023-04-24T12:20:00;6.72;;;4.65;;
66970;SDS011;53901;51.466;-2.588;2023-04-24T12:22:42;6.03;;;4.00;;
66970;SDS011;53901;51.466;-2.588;2023-04-24T12:25:10;8.88;;;4.10;;
66970;SDS011;53901;51.466;-2.588;2023-04-24T12:27:35;6.53;;;3.97;;
66970;SDS011;53901;51.466;-2.588;2023-04-24T12:30:02;7.30;;;4.93;;
66970;SDS011;53901;51.466;-2.588;2023-04-24T12:32:29;5.90;;;4.15;;
66970;SDS011;53901;51.466;-2.588;2023-04-24T12:34:55;10.98;;;4.82;;
66970;SDS011;53901;51.466;-2.588;2023-04-24T12:37:22;5.53;;;3.67;;
66970;SDS011;53901;51.466;-2.588;2023-04-24T12:42:45;6.90;;;3.92;;
66970;SDS011;53901;51.466;-2.588;2023-04-24T12:45:12;11.68;;;4.30;;
66970;SDS011;53901;51.466;-2.588;2023-04-24T12:47:38;6.60;;;4.70;;
66970;SDS011;53901;51.466;-2.588;2023-04-24T12:50:05;9.55;;;4.70;;
66970;SDS011;53901;51.466;-2.588;2023-04-24T12:52:31;10.00;;;5.10;;
66970;SDS011;53901;51.466;-2.588;2023-04-24T12:54:58;6.13;;;4.30;;
66970;SDS011;53901;51.466;-2.588;2023-04-24T12:57:26;10.65;;;6.03;;
66970;SDS011;53901;51.466;-2.588;2023-04-24T12:59:56;7.63;;;4.82;;
66970;SDS011;53901;51.466;-2.588;2023-04-24T13:02:23;8.40;;;5.03;;
66970;SDS011;53901;51.466;-2.588;2023-04-24T13:04:52;7.28;;;4.82;;
66970;SDS011;53901;51.466;-2.588;2023-04-24T13:07:40;8.63;;;5.30;;
66970;SDS011;53901;51.466;-2.588;2023-04-24T13:10:06;8.10;;;5.10;;
66970;SDS011;53901;51.466;-2.588;2023-04-24T13:12:32;6.75;;;4.72;;
66970;SDS011;53901;51.466;-2.588;2023-04-24T13:15:04;7.70;;;5.28;;
66970;SDS011;53901;51.466;-2.588;2023-04-24T13:17:30;9.00;;;4.80;;
66970;SDS011;53901;51.466;-2.588;2023-04-24T13:19:56;7.38;;;4.88;;
66970;SDS011;53901;51.466;-2.588;2023-04-24T13:22:21;7.30;;;4.63;;
66970;SDS011;53901;51.466;-2.588;2023-04-24T13:24:47;6.63;;;4.53;;
66970;SDS011;53901;51.466;-2.588;2023-04-24T13:27:16;7.03;;;4.70;;
66970;SDS011;53901;51.466;-2.588;2023-04-24T13:29:42;7.18;;;4.60;;
66970;SDS011;53901;51.466;-2.588;2023-04-24T13:32:08;8.45;;;5.05;;
66970;SDS011;53901;51.466;-2.588;2023-04-24T13:34:33;7.50;;;4.45;;
66970;SDS011;53901;51.466;-2.588;2023-04-24T13:37:02;6.80;;;4.60;;
66970;SDS011;53901;51.466;-2.588;2023-04-24T13:39:28;10.13;;;4.85;;
66970;SDS011;53901;51.466;-2.588;2023-04-24T13:41:54;6.30;;;4.65;;
66970;SDS011;53901;51.466;-2.588;2023-04-24T13:44:20;6.80;;;4.90;;
66970;SDS011;53901;51.466;-2.588;2023-04-24T13:46:46;7.55;;;4.68;;
66970;SDS011;53901;51.466;-2.588;2023-04-24T13:49:13;7.82;;;4.70;;
66970;SDS011;53901;51.466;-2.588;2023-04-24T13:51:39;6.18;;;4.30;;
66970;SDS011;53901;51.466;-2.588;2023-04-24T13:54:05;9.38;;;5.13;;
66970;SDS011;53901;51.466;-2.588;2023-04-24T13:56:30;6.82;;;4.75;;
66970;SDS011;53901;51.466;-2.588;2023-04-24T13:58:56;7.63;;;5.18;;
66970;SDS011;53901;51.466;-2.588;2023-04-24T14:01:21;6.50;;;4.50;;
66970;SDS011;53901;51.466;-2.588;2023-04-24T14:03:50;8.68;;;4.63;;
66970;SDS011;53901;51.466;-2.588;2023-04-24T14:06:16;9.05;;;5.70;;
66970;SDS011;53901;51.466;-2.588;2023-04-24T14:08:45;11.05;;;5.53;;
66970;SDS011;53901;51.466;-2.588;2023-04-24T14:11:11;8.52;;;5.45;;
66970;SDS011;53901;51.466;-2.588;2023-04-24T14:13:37;8.27;;;5.68;;
66970;SDS011;53901;51.466;-2.588;2023-04-24T14:16:03;8.05;;;5.25;;
66970;SDS011;53901;51.466;-2.588;2023-04-24T14:18:29;9.25;;;4.57;;
66970;SDS011;53901;51.466;-2.588;2023-04-24T14:20:55;9.00;;;4.57;;
66970;SDS011;53901;51.466;-2.588;2023-04-24T14:23:20;7.13;;;4.10;;
66970;SDS011;53901;51.466;-2.588;2023-04-24T14:25:46;6.13;;;4.22;;
66970;SDS011;53901;51.466;-2.588;2023-04-24T14:28:15;7.38;;;4.63;;
66970;SDS011;53901;51.466;-2.588;2023-04-24T14:30:41;7.60;;;4.22;;
66970;SDS011;53901;51.466;-2.588;2023-04-24T14:33:06;6.75;;;3.90;;
66970;SDS011;53901;51.466;-2.588;2023-04-24T14:35:32;8.55;;;4.10;;